Time;durP1;ratioP1;P1;durP2;ratioP2;P2;SDS_P1;SDS_P2;PMS_P1;PMS_P2;Temp;Humidity;BMP_temperature;BMP_pressure;BME280_temperature;BME280_humidity;BME280_pressure;Samples;Min_cycle;Max_cycle;Signal;HPM_P1;HPM_P2
2023/04/23 00:00:05;;;;;;;22.90;7.78;;;15.90;99.90;;;;;;7425039;19;19918;-80
2023/04/23 00:02:34;;;;;;;20.58;8.25;;;15.90;99.90;;;;;;7424317;19;20351;-81
2023/04/23 00:05:05;;;;;;;17.38;7.45;;;15.80;99.90;;;;;;7423760;19;19922;-81
2023/04/23 00:07:32;;;;;;;22.00;8.25;;;15.80;99.90;;;;;;7421232;19;19910;-81
2023/04/23 00:09:59;;;;;;;20.30;6.82;;;15.70;99.90;;;;;;7422844;19;19922;-81
2023/04/23 00:12:26;;;;;;;16.92;7.05;;;15.70;99.90;;;;;;7422323;19;19922;-81
2023/04/23 00:14:52;;;;;;;21.77;7.57;;;15.60;99.90;;;;;;7425121;19;19915;-81
2023/04/23 00:17:18;;;;;;;18.48;7.60;;;15.70;99.90;;;;;;7422886;19;19925;-80
2023/04/23 00:19:45;;;;;;;18.40;7.65;;;15.70;99.90;;;;;;7425767;19;19919;-81
2023/04/23 00:22:12;;;;;;;18.83;7.90;;;15.70;99.90;;;;;;7424980;19;19939;-81
2023/04/23 00:24:42;;;;;;;23.13;8.27;;;15.70;99.90;;;;;;7408420;19;19918;-82
2023/04/23 00:27:09;;;;;;;23.52;8.10;;;15.80;99.90;;;;;;7420159;19;19910;-80
2023/04/23 00:29:34;;;;;;;19.65;7.82;;;15.80;99.90;;;;;;7426007;19;19918;-81
2023/04/23 00:32:02;;;;;;;22.95;9.38;;;15.90;99.90;;;;;;7425653;19;20294;-81
2023/04/23 00:34:27;;;;;;;23.98;9.40;;;16.10;99.90;;;;;;7422599;19;19910;-81
2023/04/23 00:36:56;;;;;;;27.23;10.85;;;16.20;99.90;;;;;;7425912;19;19914;-82
2023/04/23 00:39:22;;;;;;;21.25;9.55;;;16.20;99.90;;;;;;7402161;19;20045;-81
2023/04/23 00:41:48;;;;;;;17.40;8.18;;;16.30;99.90;;;;;;7426703;19;19922;-82
2023/04/23 00:44:14;;;;;;;20.65;8.75;;;16.30;99.90;;;;;;7422595;19;19934;-81
2023/04/23 00:46:43;;;;;;;19.67;8.07;;;16.30;99.90;;;;;;7425386;19;19919;-80
2023/04/23 00:49:09;;;;;;;19.85;8.13;;;16.40;99.90;;;;;;7421495;19;19987;-81
2023/04/23 00:51:34;;;;;;;23.05;8.57;;;16.40;99.90;;;;;;7423406;19;20377;-80
2023/04/23 00:54:00;;;;;;;25.88;8.00;;;16.30;99.90;;;;;;7423548;19;19918;-81
2023/04/23 00:56:27;;;;;;;22.73;7.43;;;16.30;99.90;;;;;;7424591;19;19929;-81
2023/04/23 00:58:53;;;;;;;17.25;6.53;;;16.20;99.90;;;;;;7422315;19;19920;-81
2023/04/23 01:01:22;;;;;;;17.85;6.25;;;16.20;99.90;;;;;;7420289;19;19915;-81
2023/04/23 01:03:51;;;;;;;18.15;6.15;;;16.10;99.90;;;;;;7423929;19;19923;-81
2023/04/23 01:06:18;;;;;;;15.65;6.53;;;16.20;99.90;;;;;;7418921;19;19943;-81
2023/04/23 01:08:45;;;;;;;14.57;6.28;;;16.10;99.90;;;;;;7421358;19;19915;-80
2023/04/23 01:11:15;;;;;;;17.40;6.65;;;16.10;99.90;;;;;;7422735;19;19936;-82
2023/04/23 01:13:41;;;;;;;23.90;8.15;;;16.10;99.90;;;;;;7428507;19;19923;-80
2023/04/23 01:16:08;;;;;;;14.18;6.85;;;16.10;99.90;;;;;;7428087;19;19978;-80
2023/04/23 01:18:34;;;;;;;22.52;8.85;;;16.10;99.90;;;;;;7431456;19;19918;-81
2023/04/23 01:21:00;;;;;;;25.52;8.40;;;16.10;99.90;;;;;;7430335;19;19914;-80
2023/04/23 01:23:27;;;;;;;20.88;7.18;;;16.10;99.90;;;;;;7429218;19;19921;-81
2023/04/23 01:25:53;;;;;;;20.08;7.28;;;16.10;99.90;;;;;;7429158;19;20027;-80
2023/04/23 01:28:20;;;;;;;20.30;6.70;;;16.00;99.90;;;;;;7425594;19;19926;-82
2023/04/23 01:30:46;;;;;;;;;;;16.00;99.90;;;;;;7407898;19;19907;-81
2023/04/23 01:33:13;;;;;;;14.80;5.55;;;16.00;99.90;;;;;;7429673;19;19950;-82
2023/04/23 01:35:41;;;;;;;18.15;7.15;;;16.00;99.90;;;;;;7427441;19;20309;-82
2023/04/23 01:38:10;;;;;;;20.65;6.03;;;15.90;99.90;;;;;;7428871;19;19920;-81
2023/04/23 01:40:37;;;;;;;19.30;6.65;;;15.80;99.90;;;;;;7429229;19;19918;-82
2023/04/23 01:43:03;;;;;;;17.95;5.38;;;15.80;99.90;;;;;;7429000;19;19942;-82
2023/04/23 01:45:30;;;;;;;14.60;5.43;;;15.80;99.90;;;;;;7431033;19;19919;-81
2023/04/23 01:47:56;;;;;;;14.95;5.80;;;15.80;99.90;;;;;;7430455;19;19938;-82
2023/04/23 01:50:23;;;;;;;14.63;5.90;;;15.80;99.90;;;;;;7425134;19;19950;-82
2023/04/23 01:52:49;;;;;;;15.02;4.93;;;15.70;99.90;;;;;;7429603;19;19918;-83
2023/04/23 01:55:17;;;;;;;11.15;5.15;;;15.70;99.90;;;;;;7426452;19;19911;-82
2023/04/23 01:57:44;;;;;;;16.65;5.00;;;15.70;99.90;;;;;;7427707;19;19927;-82
2023/04/23 02:00:11;;;;;;;;;;;15.70;99.90;;;;;;7427737;19;19970;-81
2023/04/23 02:02:38;;;;;;;12.50;4.78;;;15.70;99.90;;;;;;7425998;19;19925;-82
2023/04/23 02:05:10;;;;;;;18.13;4.72;;;15.70;99.90;;;;;;7429724;19;19911;-83
2023/04/23 02:07:37;;;;;;;16.73;4.78;;;15.70;99.90;;;;;;7431399;19;20008;-81
2023/04/23 02:10:03;;;;;;;11.57;4.45;;;15.80;99.90;;;;;;7427815;19;19918;-81
2023/04/23 02:12:29;;;;;;;13.30;4.30;;;15.90;99.90;;;;;;7429634;19;19962;-81
2023/04/23 02:14:55;;;;;;;16.73;4.78;;;15.90;99.90;;;;;;7426597;19;19970;-82
2023/04/23 02:17:21;;;;;;;19.08;6.15;;;15.90;99.90;;;;;;7428790;19;19910;-82
2023/04/23 02:19:48;;;;;;;11.50;4.30;;;15.90;99.90;;;;;;7429720;19;19921;-82
2023/04/23 02:22:15;;;;;;;12.07;4.32;;;16.00;99.90;;;;;;7429460;19;19907;-83
2023/04/23 02:24:43;;;;;;;12.40;3.90;;;16.00;99.90;;;;;;7430290;19;19935;-82
2023/04/23 02:27:09;;;;;;;11.48;4.00;;;16.00;99.90;;;;;;7427501;19;19932;-83
2023/04/23 02:29:35;;;;;;;14.13;3.70;;;16.00;99.90;;;;;;7427428;19;19922;-82
2023/04/23 02:32:03;;;;;;;12.38;3.97;;;16.00;99.90;;;;;;7408046;19;19922;-81
2023/04/23 02:34:29;;;;;;;16.33;4.45;;;15.90;99.90;;;;;;7426275;19;19915;-84
2023/04/23 02:36:55;;;;;;;13.15;4.28;;;15.90;99.90;;;;;;7425239;19;19923;-83
2023/04/23 02:39:20;;;;;;;13.82;4.50;;;15.90;99.90;;;;;;7425869;19;19921;-82
2023/04/23 02:41:47;;;;;;;12.82;4.30;;;15.90;99.90;;;;;;7425434;19;19933;-81
2023/04/23 02:44:12;;;;;;;18.00;5.20;;;16.00;99.90;;;;;;7423982;19;20293;-82
2023/04/23 02:46:38;;;;;;;18.55;5.50;;;16.00;99.90;;;;;;7427027;19;19951;-82
2023/04/23 02:49:05;;;;;;;14.98;4.60;;;16.00;99.90;;;;;;7423104;19;19907;-82
2023/04/23 02:51:31;;;;;;;12.43;4.88;;;16.00;99.90;;;;;;7425930;19;19942;-81
2023/04/23 02:53:58;;;;;;;13.98;5.18;;;16.00;99.90;;;;;;7427059;19;20371;-82
2023/04/23 02:56:25;;;;;;;13.68;5.13;;;16.00;99.90;;;;;;7425315;19;19930;-81
2023/04/23 02:58:51;;;;;;;16.40;4.40;;;16.00;99.90;;;;;;7406171;19;19923;-82
2023/04/23 03:01:17;;;;;;;13.90;5.05;;;16.10;99.90;;;;;;7426947;19;20259;-81
2023/04/23 03:03:43;;;;;;;12.88;4.75;;;16.10;99.90;;;;;;7428449;19;19923;-81
2023/04/23 03:06:09;;;;;;;13.20;4.85;;;16.10;99.90;;;;;;7429300;19;19915;-81
2023/04/23 03:08:35;;;;;;;15.85;4.30;;;16.20;99.90;;;;;;7321580;19;19926;-80
2023/04/23 03:11:06;;;;;;;16.08;4.35;;;16.20;99.90;;;;;;7430302;19;19918;-82
2023/04/23 03:13:32;;;;;;;14.18;5.05;;;16.20;99.90;;;;;;7355632;19;19943;-82
2023/04/23 03:15:58;;;;;;;13.05;4.07;;;16.20;99.90;;;;;;7431059;19;19914;-81
2023/04/23 03:18:24;;;;;;;12.52;4.47;;;16.20;99.90;;;;;;7424498;19;19929;-80
2023/04/23 03:20:50;;;;;;;14.50;4.65;;;16.20;99.90;;;;;;7433210;19;19910;-82
2023/04/23 03:23:16;;;;;;;17.30;5.13;;;16.20;99.90;;;;;;7430067;19;19918;-81
2023/04/23 03:25:42;;;;;;;13.23;4.30;;;16.20;99.90;;;;;;7431188;19;20290;-82
2023/04/23 03:28:11;;;;;;;15.35;5.13;;;16.30;99.90;;;;;;7426861;19;19907;-82
2023/04/23 03:30:37;;;;;;;13.35;4.85;;;16.20;99.90;;;;;;7423099;19;19922;-82
2023/04/23 03:33:03;;;;;;;13.98;4.35;;;16.20;99.90;;;;;;7428114;19;19921;-82
2023/04/23 03:35:33;;;;;;;11.57;4.70;;;16.20;99.90;;;;;;7425520;19;19923;-82
2023/04/23 03:37:59;;;;;;;10.32;4.35;;;16.20;99.90;;;;;;7427791;19;19931;-82
2023/04/23 03:40:25;;;;;;;12.27;4.43;;;16.20;99.90;;;;;;7425750;19;19911;-82
2023/04/23 03:42:51;;;;;;;12.50;4.63;;;16.20;99.90;;;;;;7428584;19;19952;-82
2023/04/23 03:45:17;;;;;;;12.05;3.72;;;16.30;99.90;;;;;;7427837;19;19918;-83
2023/04/23 03:47:46;;;;;;;13.88;4.63;;;16.30;99.90;;;;;;7408898;19;19914;-81
2023/04/23 03:50:12;;;;;;;11.13;4.00;;;16.20;99.90;;;;;;7425439;19;19915;-82
2023/04/23 03:52:38;;;;;;;13.75;4.95;;;16.20;99.90;;;;;;7428232;19;20290;-82
2023/04/23 03:55:04;;;;;;;14.27;5.10;;;16.20;99.90;;;;;;7427287;19;19929;-82
2023/04/23 03:57:31;;;;;;;16.55;5.45;;;16.20;99.90;;;;;;7428666;19;19929;-82
2023/04/23 03:59:57;;;;;;;;;;;16.20;99.90;;;;;;7429359;19;19926;-82
2023/04/23 04:02:23;;;;;;;10.75;4.50;;;16.20;99.90;;;;;;7410730;19;19927;-81
2023/04/23 04:04:50;;;;;;;12.27;4.30;;;16.20;99.90;;;;;;7427949;19;19921;-81
2023/04/23 04:07:17;;;;;;;14.82;4.53;;;16.20;99.90;;;;;;7424469;19;20044;-81
2023/04/23 04:09:48;;;;;;;17.20;5.43;;;16.20;99.90;;;;;;7425951;19;19939;-81
2023/04/23 04:12:15;;;;;;;16.17;4.85;;;16.20;99.90;;;;;;7428153;19;19919;-80
2023/04/23 04:14:41;;;;;;;15.82;4.88;;;16.20;99.90;;;;;;7406630;19;19999;-81
2023/04/23 04:17:07;;;;;;;15.70;4.85;;;16.20;99.90;;;;;;7404242;19;19923;-81
2023/04/23 04:19:33;;;;;;;14.10;4.43;;;16.30;99.90;;;;;;7426621;19;19925;-81
2023/04/23 04:22:01;;;;;;;13.43;4.40;;;16.30;99.90;;;;;;7424227;19;19918;-81
2023/04/23 04:24:27;;;;;;;12.13;4.85;;;16.30;99.90;;;;;;7426429;19;19919;-81
2023/04/23 04:26:53;;;;;;;13.15;4.22;;;16.30;99.90;;;;;;7427880;19;19929;-83
2023/04/23 04:29:22;;;;;;;13.45;5.20;;;16.30;99.90;;;;;;7381283;19;19915;-81
2023/04/23 04:31:48;;;;;;;13.88;4.50;;;16.30;99.90;;;;;;7424255;19;19907;-82
2023/04/23 04:34:14;;;;;;;12.57;4.68;;;16.30;99.90;;;;;;7380881;19;19926;-81
2023/04/23 04:36:41;;;;;;;14.20;5.10;;;16.30;99.90;;;;;;7426610;19;19922;-82
2023/04/23 04:39:08;;;;;;;15.95;4.78;;;16.30;99.90;;;;;;7403138;19;19918;-81
2023/04/23 04:41:36;;;;;;;;;;;16.30;99.90;;;;;;7428425;19;19986;-79
2023/04/23 04:44:02;;;;;;;12.27;4.20;;;16.20;99.90;;;;;;7425490;19;20453;-81
2023/04/23 04:46:30;;;;;;;11.65;4.05;;;16.30;99.90;;;;;;7418957;19;19914;-81
2023/04/23 04:48:56;;;;;;;14.27;4.90;;;16.30;99.90;;;;;;7412206;19;19934;-82
2023/04/23 04:51:22;;;;;;;18.30;4.80;;;16.20;99.90;;;;;;7410815;19;19935;-82
2023/04/23 04:53:48;;;;;;;16.77;5.18;;;16.30;99.90;;;;;;7435987;19;19910;-81
2023/04/23 04:56:14;;;;;;;14.55;4.85;;;16.30;99.90;;;;;;7388263;19;19931;-82
2023/04/23 04:58:39;;;;;;;14.95;4.20;;;16.30;99.90;;;;;;7431415;19;19924;-81
2023/04/23 05:01:09;;;;;;;15.20;4.28;;;16.20;99.90;;;;;;7432717;19;19929;-80
2023/04/23 05:03:39;;;;;;;9.40;3.80;;;16.20;99.90;;;;;;7390660;19;19907;-81
2023/04/23 05:06:05;;;;;;;16.88;4.68;;;16.10;99.90;;;;;;7431185;19;19918;-80
2023/04/23 05:08:32;;;;;;;16.55;5.47;;;16.10;99.90;;;;;;7432770;19;19915;-82
2023/04/23 05:11:00;;;;;;;10.52;4.35;;;16.10;99.90;;;;;;7432809;19;19914;-82
2023/04/23 05:13:27;;;;;;;16.13;4.47;;;16.20;99.90;;;;;;7429447;19;19918;-82
2023/04/23 05:15:53;;;;;;;14.82;4.70;;;16.30;99.90;;;;;;7433270;19;19915;-82
2023/04/23 05:18:19;;;;;;;13.48;4.70;;;16.30;99.90;;;;;;7407992;19;19914;-82
2023/04/23 05:20:46;;;;;;;15.45;4.90;;;16.40;99.90;;;;;;7413396;19;19919;-83
2023/04/23 05:23:18;;;;;;;12.98;4.93;;;16.40;99.90;;;;;;7427287;19;19923;-82
2023/04/23 05:25:57;;;;;;;14.18;4.68;;;16.40;99.90;;;;;;7430908;19;19942;-81
2023/04/23 05:28:23;;;;;;;14.35;4.68;;;16.40;99.90;;;;;;7383189;19;19949;-81
2023/04/23 05:30:49;;;;;;;17.17;5.20;;;16.40;99.90;;;;;;7431508;19;19917;-82
2023/04/23 05:33:17;;;;;;;13.73;5.00;;;16.50;99.90;;;;;;7424755;19;19961;-81
2023/04/23 05:35:43;;;;;;;16.05;5.32;;;16.50;99.90;;;;;;7430671;19;19929;-81
2023/04/23 05:38:09;;;;;;;18.00;5.00;;;16.50;99.90;;;;;;7428381;19;19919;-82
2023/04/23 05:40:35;;;;;;;14.63;4.07;;;16.50;99.90;;;;;;7432976;19;19986;-82
2023/04/23 05:43:01;;;;;;;13.13;4.72;;;16.40;99.90;;;;;;7429219;19;19919;-84
2023/04/23 05:45:27;;;;;;;14.70;4.43;;;16.40;99.90;;;;;;7378275;19;19930;-81
2023/04/23 05:47:55;;;;;;;13.25;4.63;;;16.40;99.90;;;;;;7433321;19;19918;-82
2023/04/23 05:50:21;;;;;;;16.85;5.35;;;16.50;99.90;;;;;;7428287;19;19921;-82
2023/04/23 05:52:47;;;;;;;13.98;4.95;;;16.50;99.90;;;;;;7430328;19;19922;-83
2023/04/23 05:55:17;;;;;;;18.55;5.70;;;16.60;99.90;;;;;;7430891;19;19929;-82
2023/04/23 05:57:43;;;;;;;14.38;5.07;;;16.50;99.90;;;;;;7426028;19;19926;-81
2023/04/23 06:00:10;;;;;;;15.07;5.65;;;16.50;99.90;;;;;;7396295;19;19918;-81
2023/04/23 06:02:39;;;;;;;12.45;5.03;;;16.60;99.90;;;;;;7430699;19;19929;-81
2023/04/23 06:05:06;;;;;;;13.25;5.15;;;16.70;99.90;;;;;;7425435;19;19928;-83
2023/04/23 06:07:32;;;;;;;14.70;4.72;;;16.80;99.90;;;;;;7429148;19;19922;-81
2023/04/23 06:13:31;;;;;;;15.98;5.85;;;17.00;99.90;;;;;;7407215;19;19942;-82
2023/04/23 06:15:57;;;;;;;17.27;5.07;;;17.00;99.90;;;;;;7431467;19;19914;-82
2023/04/23 06:18:23;;;;;;;15.23;5.00;;;17.10;99.90;;;;;;7426941;19;19942;-82
2023/04/23 06:20:50;;;;;;;16.80;5.30;;;17.10;99.90;;;;;;7431208;19;19911;-81
2023/04/23 06:23:16;;;;;;;15.48;5.90;;;17.20;99.90;;;;;;7429052;19;19914;-82
2023/04/23 06:25:42;;;;;;;14.27;6.00;;;17.10;99.90;;;;;;7432048;19;19921;-81
2023/04/23 06:28:09;;;;;;;12.68;5.43;;;17.00;99.90;;;;;;7407507;19;19946;-81
2023/04/23 06:30:36;;;;;;;15.68;5.85;;;17.00;99.90;;;;;;7339922;19;19913;-81
2023/04/23 06:33:02;;;;;;;13.70;5.60;;;16.90;99.90;;;;;;7429320;19;19918;-81
2023/04/23 06:35:30;;;;;;;12.55;5.43;;;16.90;99.90;;;;;;7430404;19;19935;-80
2023/04/23 06:37:55;;;;;;;15.73;5.88;;;17.00;99.90;;;;;;7427364;19;19910;-82
2023/04/23 06:40:21;;;;;;;13.88;6.05;;;17.00;99.90;;;;;;7428886;19;19930;-83
2023/04/23 06:42:47;;;;;;;18.88;7.22;;;16.80;99.90;;;;;;7430838;19;19915;-81
2023/04/23 06:45:16;;;;;;;17.38;6.72;;;16.50;99.90;;;;;;7405067;19;19906;-82
2023/04/23 06:47:43;;;;;;;14.25;6.43;;;16.40;99.90;;;;;;7377983;19;19921;-81
2023/04/23 06:50:12;;;;;;;15.98;6.53;;;16.30;99.90;;;;;;7424898;19;19915;-82
2023/04/23 06:52:38;;;;;;;21.42;8.65;;;16.40;99.90;;;;;;7406363;19;20307;-81
2023/04/23 06:55:06;;;;;;;17.38;6.10;;;16.20;99.90;;;;;;7404553;19;19914;-82
2023/04/23 06:57:32;;;;;;;12.23;5.13;;;16.30;99.90;;;;;;7429386;19;19942;-82
2023/04/23 06:59:59;;;;;;;13.57;5.85;;;16.40;99.90;;;;;;7430223;19;19917;-81
2023/04/23 07:02:25;;;;;;;14.60;5.13;;;16.40;99.90;;;;;;7426405;19;19922;-81
2023/04/23 07:04:50;;;;;;;15.20;6.50;;;16.30;99.90;;;;;;7430052;19;19921;-82
2023/04/23 07:07:16;;;;;;;12.20;6.22;;;16.40;99.90;;;;;;7425427;19;19907;-82
2023/04/23 07:09:43;;;;;;;14.18;5.95;;;16.50;99.90;;;;;;7429049;19;19978;-81
2023/04/23 07:12:09;;;;;;;15.98;5.65;;;16.70;99.90;;;;;;7402631;19;19918;-80
2023/04/23 07:14:35;;;;;;;14.27;5.30;;;16.90;99.90;;;;;;7427725;19;19915;-82
2023/04/23 07:17:02;;;;;;;11.50;4.65;;;17.10;99.90;;;;;;7427003;19;19907;-81
2023/04/23 07:19:27;;;;;;;13.65;5.15;;;17.20;99.90;;;;;;7425594;19;19911;-81
2023/04/23 07:21:54;;;;;;;13.45;5.90;;;17.30;99.90;;;;;;7426030;19;20310;-82
2023/04/23 07:24:20;;;;;;;;;;;17.30;99.90;;;;;;7427772;19;19911;-81
2023/04/23 07:26:47;;;;;;;13.15;4.22;;;17.50;99.90;;;;;;7401912;19;19932;-82
2023/04/23 07:29:14;;;;;;;15.63;5.20;;;17.50;99.90;;;;;;7424519;19;19914;-82
2023/04/23 07:31:40;;;;;;;12.10;4.55;;;17.40;99.90;;;;;;7427372;19;19934;-81
2023/04/23 07:34:06;;;;;;;13.68;5.00;;;17.30;99.90;;;;;;7422209;19;19921;-82
2023/04/23 07:36:32;;;;;;;11.90;4.95;;;17.40;99.90;;;;;;7426833;19;19919;-82
2023/04/23 07:38:58;;;;;;;12.75;4.53;;;17.60;99.90;;;;;;7425110;19;19915;-83
2023/04/23 07:41:24;;;;;;;14.90;4.78;;;17.60;99.90;;;;;;7420117;19;19911;-82
2023/04/23 07:43:52;;;;;;;18.98;5.72;;;17.70;99.90;;;;;;7402868;19;19961;-81
2023/04/23 07:46:18;;;;;;;12.07;5.40;;;17.60;99.90;;;;;;7401703;19;19918;-82
2023/04/23 07:48:44;;;;;;;9.90;4.50;;;17.60;99.90;;;;;;7427335;19;19926;-81
2023/04/23 07:51:11;;;;;;;12.60;4.55;;;17.30;99.90;;;;;;7426997;19;19926;-82
2023/04/23 07:53:37;;;;;;;16.02;5.65;;;17.30;99.90;;;;;;7421903;19;19991;-82
2023/04/23 07:56:03;;;;;;;14.15;5.03;;;17.30;99.90;;;;;;7421922;19;19934;-82
2023/04/23 07:58:32;;;;;;;14.93;5.68;;;17.30;99.90;;;;;;7425451;19;19915;-81
2023/04/23 08:00:59;;;;;;;14.75;6.00;;;17.30;99.90;;;;;;7425208;19;19914;-81
2023/04/23 08:03:24;;;;;;;14.65;5.63;;;17.60;99.90;;;;;;7424617;19;19914;-83
2023/04/23 08:05:50;;;;;;;15.27;5.55;;;17.50;99.90;;;;;;7425662;19;20061;-83
2023/04/23 08:08:16;;;;;;;15.38;5.75;;;17.30;99.90;;;;;;7422708;19;19926;-82
2023/04/23 08:10:42;;;;;;;11.45;5.05;;;17.70;99.90;;;;;;7352383;19;20663;-82
2023/04/23 08:13:08;;;;;;;15.23;5.82;;;17.70;99.90;;;;;;7423996;19;19918;-82
2023/04/23 08:15:37;;;;;;;14.15;5.10;;;17.60;99.90;;;;;;7395899;19;19926;-83
2023/04/23 08:18:03;;;;;;;13.30;4.95;;;17.70;99.90;;;;;;7423865;19;19915;-82
2023/04/23 08:20:32;;;;;;;10.30;4.95;;;17.50;99.50;;;;;;7404254;19;19910;-81
2023/04/23 08:22:59;;;;;;;10.55;4.68;;;17.60;99.80;;;;;;7425589;19;19910;-81
2023/04/23 08:25:25;;;;;;;14.30;4.80;;;17.60;99.60;;;;;;7382413;19;19922;-82
2023/04/23 08:27:55;;;;;;;10.55;4.97;;;17.70;99.60;;;;;;7424499;19;20399;-81
2023/04/23 08:30:21;;;;;;;10.55;4.47;;;17.80;99.50;;;;;;7402729;19;19915;-81
2023/04/23 08:32:49;;;;;;;10.32;5.07;;;17.90;99.50;;;;;;7425520;19;19910;-82
2023/04/23 08:35:15;;;;;;;10.98;4.80;;;18.20;99.00;;;;;;7391750;19;19919;-84
2023/04/23 08:37:41;;;;;;;11.73;4.82;;;19.90;96.10;;;;;;7421754;19;19918;-82
2023/04/23 08:40:09;;;;;;;10.90;5.18;;;20.50;93.40;;;;;;7423988;19;19914;-82
2023/04/23 08:42:37;;;;;;;11.50;4.88;;;21.30;91.90;;;;;;7425188;19;19968;-81
2023/04/23 08:45:04;;;;;;;11.68;4.30;;;22.40;90.10;;;;;;7422484;19;19953;-82
2023/04/23 08:47:31;;;;;;;15.45;6.50;;;21.30;90.50;;;;;;7424882;19;20272;-82
2023/04/23 08:49:59;;;;;;;13.43;5.25;;;19.80;91.80;;;;;;7422661;19;19914;-83
2023/04/23 08:52:31;;;;;;;16.88;5.95;;;20.20;93.00;;;;;;7423105;19;19965;-81
2023/04/23 08:55:00;;;;;;;15.82;5.70;;;21.30;91.30;;;;;;7424804;19;19927;-83
2023/04/23 08:57:26;;;;;;;14.60;6.22;;;21.80;90.70;;;;;;7388264;19;19919;-82
2023/04/23 08:59:54;;;;;;;15.55;6.05;;;20.70;91.60;;;;;;7421829;19;20014;-83
2023/04/23 09:02:20;;;;;;;15.73;7.32;;;21.10;92.40;;;;;;7396671;19;19978;-82
2023/04/23 09:04:47;;;;;;;15.23;7.38;;;20.40;93.30;;;;;;7424154;19;19930;-81
2023/04/23 09:07:14;;;;;;;16.20;7.55;;;21.00;93.30;;;;;;7421855;19;19925;-82
2023/04/23 09:09:40;;;;;;;14.00;7.07;;;20.90;93.00;;;;;;7421408;19;19924;-81
2023/04/23 09:12:08;;;;;;;16.20;7.45;;;20.60;93.20;;;;;;7399876;19;19923;-82
2023/04/23 09:14:34;;;;;;;16.55;7.10;;;19.70;94.60;;;;;;7423233;19;19919;-82
2023/04/23 09:17:02;;;;;;;15.52;7.00;;;20.00;94.80;;;;;;7424024;19;19915;-82
2023/04/23 09:19:29;;;;;;;16.15;7.32;;;20.00;94.30;;;;;;7379901;19;19927;-82
2023/04/23 09:21:57;;;;;;;14.15;7.13;;;20.20;94.40;;;;;;7425719;19;19914;-82
2023/04/23 09:24:24;;;;;;;16.48;6.82;;;20.60;93.70;;;;;;7421876;19;19938;-82
2023/04/23 09:26:51;;;;;;;17.40;7.00;;;20.80;93.50;;;;;;7424254;19;19979;-81
2023/04/23 09:29:22;;;;;;;15.95;7.00;;;22.00;91.70;;;;;;7388477;19;19915;-82
2023/04/23 09:31:55;;;;;;;16.63;6.80;;;21.50;91.80;;;;;;7418333;19;19922;-82
2023/04/23 09:34:25;;;;;;;15.65;6.78;;;21.90;91.20;;;;;;7422303;19;19918;-82
2023/04/23 09:36:52;;;;;;;14.48;7.20;;;21.80;91.10;;;;;;7426147;19;19924;-82
2023/04/23 09:39:22;;;;;;;12.27;6.28;;;21.60;91.10;;;;;;7425883;19;19915;-81
2023/04/23 09:41:51;;;;;;;15.77;6.55;;;21.60;91.00;;;;;;7426136;19;19914;-81
2023/04/23 09:44:18;;;;;;;17.92;6.82;;;21.00;91.50;;;;;;7401778;19;19923;-73
2023/04/23 09:46:44;;;;;;;13.93;6.82;;;20.70;92.00;;;;;;7401445;19;19971;-72
2023/04/23 09:49:12;;;;;;;12.55;6.25;;;20.80;92.10;;;;;;7406467;19;19947;-74
2023/04/23 09:51:42;;;;;;;16.50;7.60;;;20.50;91.50;;;;;;7405736;19;19918;-73
2023/04/23 09:54:15;;;;;;;17.67;7.68;;;19.80;93.60;;;;;;7400093;19;19930;-72
2023/04/23 09:56:47;;;;;;;17.90;6.55;;;20.00;94.10;;;;;;7403678;19;20326;-72
2023/04/23 09:59:24;;;;;;;17.00;6.90;;;20.60;92.90;;;;;;7404900;19;19910;-72
2023/04/23 10:01:50;;;;;;;18.05;7.18;;;21.20;91.90;;;;;;7351013;19;19915;-72
2023/04/23 10:04:17;;;;;;;;;;;21.30;91.00;;;;;;7402936;19;19930;-69
2023/04/23 10:06:43;;;;;;;15.80;6.53;;;21.80;91.10;;;;;;7399265;19;19959;-70
2023/04/23 10:09:08;;;;;;;15.00;6.63;;;21.90;90.30;;;;;;7395959;19;20418;-69
2023/04/23 10:11:35;;;;;;;13.52;7.13;;;22.80;88.80;;;;;;7399243;19;19945;-69
2023/04/23 10:14:01;;;;;;;14.70;7.22;;;21.50;90.60;;;;;;7404065;19;19910;-68
2023/04/23 10:16:27;;;;;;;14.93;7.72;;;21.90;90.40;;;;;;7402001;19;19923;-69
2023/04/23 10:18:55;;;;;;;12.88;6.05;;;21.60;90.90;;;;;;7403875;19;19924;-69
2023/04/23 10:21:27;;;;;;;12.95;6.63;;;21.60;90.80;;;;;;7401753;19;19919;-68
2023/04/23 10:23:54;;;;;;;16.08;7.38;;;21.10;91.70;;;;;;7402449;19;19943;-69
2023/04/23 10:26:23;;;;;;;15.07;8.38;;;21.40;91.20;;;;;;7400526;19;19911;-69
2023/04/23 10:28:52;;;;;;;15.93;7.25;;;20.20;92.90;;;;;;7402911;19;19914;-68
2023/04/23 10:31:18;;;;;;;16.10;8.43;;;20.80;92.40;;;;;;7401669;19;20450;-69
2023/04/23 10:33:46;;;;;;;22.40;9.10;;;19.80;93.40;;;;;;7403325;19;19919;-70
2023/04/23 10:36:12;;;;;;;17.45;8.02;;;20.70;92.60;;;;;;7401356;19;20311;-68
2023/04/23 10:38:40;;;;;;;17.70;7.78;;;20.50;93.40;;;;;;7392821;19;19938;-69
2023/04/23 10:41:10;;;;;;;15.13;6.93;;;20.80;92.80;;;;;;7374072;19;19990;-69
2023/04/23 10:43:35;;;;;;;18.88;7.38;;;20.90;92.20;;;;;;7395622;19;19919;-69
2023/04/23 10:46:01;;;;;;;17.10;6.60;;;20.80;92.90;;;;;;7397535;19;19919;-69
2023/04/23 10:48:27;;;;;;;17.85;7.07;;;21.20;92.30;;;;;;7395943;19;20543;-67
2023/04/23 10:50:58;;;;;;;16.42;6.65;;;21.20;92.10;;;;;;7395291;19;20380;-69
2023/04/23 10:53:25;;;;;;;16.40;7.18;;;21.30;91.50;;;;;;7392913;19;19919;-69
2023/04/23 10:56:03;;;;;;;;;;;20.70;92.20;;;;;;7399024;19;19914;-69
2023/04/23 10:58:49;;;;;;;18.08;7.97;;;20.30;93.10;;;;;;7396725;19;19918;-69
2023/04/23 11:01:17;;;;;;;16.65;6.93;;;20.40;93.80;;;;;;7363445;19;19930;-68
2023/04/23 11:03:44;;;;;;;18.30;8.18;;;20.80;93.20;;;;;;7392728;19;19928;-69
2023/04/23 11:06:32;;;;;;;17.23;8.60;;;21.10;92.40;;;;;;7394539;19;20162;-68
2023/04/23 11:08:58;;;;;;;18.95;8.02;;;21.00;92.40;;;;;;7398631;19;19915;-69
2023/04/23 11:11:39;;;;;;;16.02;8.13;;;21.50;92.20;;;;;;7386668;19;19930;-70
2023/04/23 11:14:13;;;;;;;18.77;8.02;;;20.80;92.90;;;;;;7390466;19;19914;-69
2023/04/23 11:16:38;;;;;;;14.48;6.80;;;21.90;91.90;;;;;;7364635;19;19910;-70
2023/04/23 11:19:12;;;;;;;19.20;8.13;;;22.30;91.20;;;;;;7394061;19;19954;-69
2023/04/23 11:22:01;;;;;;;19.77;9.30;;;22.60;90.60;;;;;;7403363;19;20252;-73
2023/04/23 11:24:36;;;;;;;15.27;6.80;;;22.10;90.80;;;;;;7394364;19;19943;-73
2023/04/23 11:27:05;;;;;;;14.93;8.57;;;22.40;91.00;;;;;;7385594;19;20461;-73
2023/04/23 11:29:31;;;;;;;17.55;8.57;;;21.80;91.50;;;;;;7397522;19;19942;-72
2023/04/23 11:31:57;;;;;;;18.88;7.88;;;22.80;91.20;;;;;;7388243;19;19918;-73
2023/04/23 11:34:24;;;;;;;16.38;8.13;;;21.90;91.00;;;;;;7386945;19;20354;-72
2023/04/23 11:36:53;;;;;;;18.45;8.95;;;22.40;91.30;;;;;;7393639;19;19925;-72
2023/04/23 11:39:22;;;;;;;15.95;7.63;;;22.20;91.60;;;;;;7394112;19;19915;-72
2023/04/23 11:41:49;;;;;;;20.55;8.82;;;22.80;90.80;;;;;;7387341;19;19922;-76
2023/04/23 11:44:15;;;;;;;19.85;7.47;;;22.90;91.30;;;;;;7396007;19;19915;-76
2023/04/23 11:46:41;;;;;;;15.68;7.97;;;23.90;90.00;;;;;;7342509;19;20278;-75
2023/04/23 11:49:08;;;;;;;17.95;8.13;;;23.90;89.30;;;;;;7402514;19;19918;-75
2023/04/23 11:51:35;;;;;;;19.23;7.68;;;23.70;89.50;;;;;;7404326;19;19939;-75
2023/04/23 11:54:03;;;;;;;15.88;8.02;;;23.20;90.20;;;;;;7404651;19;20300;-76
2023/04/23 11:56:30;;;;;;;15.10;6.80;;;23.00;90.70;;;;;;7398660;19;19927;-75
2023/04/23 11:59:02;;;;;;;14.93;6.97;;;22.40;91.60;;;;;;7402297;19;19922;-74
2023/04/23 12:01:50;;;;;;;18.90;7.00;;;22.20;92.60;;;;;;7400886;19;19919;-76
2023/04/23 12:04:29;;;;;;;19.85;7.20;;;22.20;92.00;;;;;;7401428;19;19930;-76
2023/04/23 12:06:56;;;;;;;17.15;7.20;;;22.10;92.80;;;;;;7406430;19;19918;-76
2023/04/23 12:09:25;;;;;;;18.75;7.28;;;21.30;93.60;;;;;;7401718;19;21020;-75
2023/04/23 12:11:51;;;;;;;15.93;7.15;;;21.70;93.60;;;;;;7402404;19;20319;-75
2023/04/23 12:14:20;;;;;;;15.88;6.82;;;22.00;93.50;;;;;;7399394;19;19919;-75
2023/04/23 12:16:51;;;;;;;22.92;7.40;;;22.50;92.10;;;;;;7399488;19;19922;-75
2023/04/23 12:19:28;;;;;;;24.67;8.02;;;22.60;92.00;;;;;;7398585;19;20357;-76
2023/04/23 12:22:02;;;;;;;15.30;6.43;;;22.00;93.10;;;;;;7348957;19;20335;-75
2023/04/23 12:24:30;;;;;;;18.00;6.28;;;21.90;93.10;;;;;;7401951;19;19914;-75
2023/04/23 12:27:01;;;;;;;13.45;6.20;;;21.80;93.20;;;;;;7402195;19;19919;-75
2023/04/23 12:29:30;;;;;;;22.75;8.30;;;21.90;93.00;;;;;;7398641;19;20481;-76
2023/04/23 12:31:58;;;;;;;20.02;7.05;;;22.10;93.10;;;;;;7401854;19;19925;-75
2023/04/23 12:34:24;;;;;;;14.43;6.03;;;22.20;92.80;;;;;;7399729;19;20335;-75
2023/04/23 12:36:53;;;;;;;16.52;6.00;;;21.80;92.90;;;;;;7400963;19;19918;-75
2023/04/23 12:39:22;;;;;;;15.00;6.30;;;21.60;93.50;;;;;;7398934;19;20256;-75
2023/04/23 12:41:50;;;;;;;16.00;6.28;;;20.90;94.60;;;;;;7401266;19;20345;-75